Moline, IL

8:02 PM CDT on August 27, 2014 (GMT -0500)
east end of moline | Change Station
CLOSE
Current Station
Personal Weather Station
Location: moline, il
Elevation: 712 ft
Nearby Weather Stations

Elev 712 ft 41.50 °N, 90.47 °W | Updated 5 seconds ago

Clear
Clear
70.2 °F
Feels Like 75 °F
N
0.0
Wind Variable Wind from NNW
Gusts 0.0 mph

Today
High -- | Low -- °F
--% Chance of Precip.
Yesterday
High -- | Low -- °F
Precip. -- in
6:22 AM 7:42 PM
Waxing Crescent, 5% visible
Pressure 30.08 in
Visibility 10.0 miles
Clouds Clear
Heat Index 75 °F
Dew Point 32 °F
Humidity 24%
Rainfall 0.00 in
Snow Depth Not available.
UV 0 out of 12
Pollen 8.70 out of 12
Air Quality Not available.
Flu Activity Not available.
METAR KMLI 280052Z 06006KT 10SM CLR 23/17 A3008 RMK AO2 SLP184 T02330167

More Conditions Fewer Conditions

Pressure 30.08 in
Visibility 10.0 miles
Clouds Clear
Heat Index 75 °F
Dew Point 32 °F
Humidity 24%
Rainfall 0.00 in
Snow Depth Not available.
UV 0 out of 12
Pollen 8.70 out of 12
Air Quality Not available.
Flu Activity Not available.
METAR KMLI 280052Z 06006KT 10SM CLR 23/17 A3008 RMK AO2 SLP184 T02330167

More Conditions Fewer Conditions

10-Day Weather Forecast

Almanac

Astronomy

Aug. 27, 2014 Rise Set
Actual Time 6:22 AM CDT 7:42 PM CDT
Civil Twilight 5:54 AM CDT 8:11 PM CDT
Nautical Twilight 5:19 AM CDT 8:46 PM CDT
Astronomical Twilight 4:42 AM CDT 9:22 PM CDT
Moon 8:21 AM CDT (8/27) 8:32 PM CDT (8/27)
Length of Visible Light 14h 17m
Length of Day
13h 20m
Tomorrow will be 2m 37s shorter.
Waxing Crescent, 5% of the Moon is Illuminated
Today
Waxing Crescent
Sep 2
First Quarter
Sep 8
Full
Sep 15
Last Quarter
Sep 24
New

Today's Extremes

State Highs State Lows

Community

WunderPhotos

Upload Photos

1,747,843 photos uploaded!

Nearby

Snow Depth

Station Depth Elevation
No new snow has been reported.

Earthquake Activity

City Distance Mag. Time & Date
No recent earthquake activity has been reported nearby.
Minimum magnitude displayed is 2.5.

Coastal Water Temperatures

Place Temperature
No Stations Reporting

Nearby Weather Stations